sensor_id;sensor_type;location;lat;lon;timestamp;P1;durP1;ratioP1;P2;durP2;ratioP2
49296;SDS011;35163;48.878;18.040;2022-11-14T00:00:57;51.25;;;28.52;;
49296;SDS011;35163;48.878;18.040;2022-11-14T00:03:23;55.58;;;28.38;;
49296;SDS011;35163;48.878;18.040;2022-11-14T00:05:50;51.67;;;27.88;;
49296;SDS011;35163;48.878;18.040;2022-11-14T00:08:20;52.78;;;28.25;;
49296;SDS011;35163;48.878;18.040;2022-11-14T00:10:49;48.40;;;27.33;;
49296;SDS011;35163;48.878;18.040;2022-11-14T00:13:17;56.45;;;27.10;;
49296;SDS011;35163;48.878;18.040;2022-11-14T00:15:46;56.45;;;26.80;;
49296;SDS011;35163;48.878;18.040;2022-11-14T00:18:15;50.08;;;28.17;;
49296;SDS011;35163;48.878;18.040;2022-11-14T00:20:46;50.67;;;27.58;;
49296;SDS011;35163;48.878;18.040;2022-11-14T00:23:17;54.78;;;29.83;;
49296;SDS011;35163;48.878;18.040;2022-11-14T00:25:44;63.53;;;30.63;;
49296;SDS011;35163;48.878;18.040;2022-11-14T00:28:11;52.10;;;28.23;;
49296;SDS011;35163;48.878;18.040;2022-11-14T00:30:38;54.42;;;27.58;;
49296;SDS011;35163;48.878;18.040;2022-11-14T00:33:05;52.50;;;30.60;;
49296;SDS011;35163;48.878;18.040;2022-11-14T00:35:31;58.85;;;28.17;;
49296;SDS011;35163;48.878;18.040;2022-11-14T00:37:58;48.70;;;27.73;;
49296;SDS011;35163;48.878;18.040;2022-11-14T00:40:24;51.90;;;29.50;;
49296;SDS011;35163;48.878;18.040;2022-11-14T00:42:51;52.25;;;29.30;;
49296;SDS011;35163;48.878;18.040;2022-11-14T00:45:17;48.42;;;26.60;;
49296;SDS011;35163;48.878;18.040;2022-11-14T00:47:44;50.95;;;28.63;;
49296;SDS011;35163;48.878;18.040;2022-11-14T00:50:11;55.50;;;27.85;;
49296;SDS011;35163;48.878;18.040;2022-11-14T00:52:37;51.55;;;27.63;;
49296;SDS011;35163;48.878;18.040;2022-11-14T00:55:04;53.80;;;28.67;;
49296;SDS011;35163;48.878;18.040;2022-11-14T00:57:31;55.67;;;30.77;;
49296;SDS011;35163;48.878;18.040;2022-11-14T00:59:57;55.38;;;28.60;;
49296;SDS011;35163;48.878;18.040;2022-11-14T01:02:25;52.33;;;29.13;;
49296;SDS011;35163;48.878;18.040;2022-11-14T01:04:52;58.20;;;27.85;;
49296;SDS011;35163;48.878;18.040;2022-11-14T01:07:18;55.67;;;28.90;;
49296;SDS011;35163;48.878;18.040;2022-11-14T01:09:45;55.35;;;28.70;;
49296;SDS011;35163;48.878;18.040;2022-11-14T01:12:11;56.78;;;30.95;;
49296;SDS011;35163;48.878;18.040;2022-11-14T01:14:38;51.10;;;27.58;;
49296;SDS011;35163;48.878;18.040;2022-11-14T01:17:06;67.38;;;32.00;;
49296;SDS011;35163;48.878;18.040;2022-11-14T01:19:33;59.75;;;31.80;;
49296;SDS011;35163;48.878;18.040;2022-11-14T01:22:00;56.85;;;30.52;;
49296;SDS011;35163;48.878;18.040;2022-11-14T01:24:31;64.22;;;30.25;;
49296;SDS011;35163;48.878;18.040;2022-11-14T01:26:59;60.30;;;29.33;;
49296;SDS011;35163;48.878;18.040;2022-11-14T01:29:26;129.52;;;32.67;;
49296;SDS011;35163;48.878;18.040;2022-11-14T01:31:53;62.65;;;30.38;;
49296;SDS011;35163;48.878;18.040;2022-11-14T01:34:20;73.38;;;31.27;;
49296;SDS011;35163;48.878;18.040;2022-11-14T01:36:47;117.22;;;31.88;;
49296;SDS011;35163;48.878;18.040;2022-11-14T01:39:14;102.25;;;32.75;;
49296;SDS011;35163;48.878;18.040;2022-11-14T01:41:41;200.18;;;34.00;;
49296;SDS011;35163;48.878;18.040;2022-11-14T01:44:14;74.28;;;27.15;;
49296;SDS011;35163;48.878;18.040;2022-11-14T01:46:44;56.28;;;30.27;;
49296;SDS011;35163;48.878;18.040;2022-11-14T01:49:19;86.05;;;32.00;;
49296;SDS011;35163;48.878;18.040;2022-11-14T01:51:53;87.10;;;34.00;;
49296;SDS011;35163;48.878;18.040;2022-11-14T01:54:28;137.80;;;31.67;;
49296;SDS011;35163;48.878;18.040;2022-11-14T01:56:58;93.20;;;33.33;;
49296;SDS011;35163;48.878;18.040;2022-11-14T01:59:36;117.22;;;30.92;;
49296;SDS011;35163;48.878;18.040;2022-11-14T02:02:09;278.65;;;38.05;;
49296;SDS011;35163;48.878;18.040;2022-11-14T02:04:42;58.90;;;28.42;;
49296;SDS011;35163;48.878;18.040;2022-11-14T02:07:12;286.88;;;36.28;;
49296;SDS011;35163;48.878;18.040;2022-11-14T02:09:42;161.45;;;33.92;;
49296;SDS011;35163;48.878;18.040;2022-11-14T02:12:11;122.00;;;32.03;;
49296;SDS011;35163;48.878;18.040;2022-11-14T02:14:40;150.75;;;32.58;;
49296;SDS011;35163;48.878;18.040;2022-11-14T02:17:10;98.53;;;30.42;;
49296;SDS011;35163;48.878;18.040;2022-11-14T02:22:37;72.72;;;28.75;;
49296;SDS011;35163;48.878;18.040;2022-11-14T02:25:06;167.85;;;32.20;;
49296;SDS011;35163;48.878;18.040;2022-11-14T02:27:34;90.88;;;28.73;;
49296;SDS011;35163;48.878;18.040;2022-11-14T02:30:04;100.15;;;29.50;;
49296;SDS011;35163;48.878;18.040;2022-11-14T02:32:36;202.07;;;32.20;;
49296;SDS011;35163;48.878;18.040;2022-11-14T02:35:23;125.53;;;31.20;;
49296;SDS011;35163;48.878;18.040;2022-11-14T02:37:49;107.15;;;28.80;;
49296;SDS011;35163;48.878;18.040;2022-11-14T02:40:16;160.43;;;31.10;;
49296;SDS011;35163;48.878;18.040;2022-11-14T02:42:43;73.22;;;26.50;;
49296;SDS011;35163;48.878;18.040;2022-11-14T02:45:10;104.45;;;27.27;;
49296;SDS011;35163;48.878;18.040;2022-11-14T02:47:37;78.25;;;26.58;;
49296;SDS011;35163;48.878;18.040;2022-11-14T02:50:04;98.50;;;30.67;;
49296;SDS011;35163;48.878;18.040;2022-11-14T02:52:31;155.65;;;30.15;;
49296;SDS011;35163;48.878;18.040;2022-11-14T02:54:57;83.32;;;27.55;;
49296;SDS011;35163;48.878;18.040;2022-11-14T02:57:24;96.82;;;26.38;;
49296;SDS011;35163;48.878;18.040;2022-11-14T02:59:50;98.88;;;27.23;;
49296;SDS011;35163;48.878;18.040;2022-11-14T03:02:17;77.82;;;26.38;;
49296;SDS011;35163;48.878;18.040;2022-11-14T03:04:43;70.18;;;24.83;;
49296;SDS011;35163;48.878;18.040;2022-11-14T03:07:10;55.65;;;24.33;;
49296;SDS011;35163;48.878;18.040;2022-11-14T03:09:37;56.88;;;25.02;;
49296;SDS011;35163;48.878;18.040;2022-11-14T03:12:03;80.32;;;25.23;;
49296;SDS011;35163;48.878;18.040;2022-11-14T03:14:30;53.58;;;23.35;;
49296;SDS011;35163;48.878;18.040;2022-11-14T03:16:57;50.72;;;23.52;;
49296;SDS011;35163;48.878;18.040;2022-11-14T03:19:23;92.18;;;24.98;;
49296;SDS011;35163;48.878;18.040;2022-11-14T03:21:50;61.92;;;24.42;;
49296;SDS011;35163;48.878;18.040;2022-11-14T03:24:16;83.25;;;26.05;;
49296;SDS011;35163;48.878;18.040;2022-11-14T03:26:43;69.35;;;24.08;;
49296;SDS011;35163;48.878;18.040;2022-11-14T03:29:10;97.63;;;25.65;;
49296;SDS011;35163;48.878;18.040;2022-11-14T03:31:36;81.07;;;24.98;;
49296;SDS011;35163;48.878;18.040;2022-11-14T03:34:03;102.05;;;26.40;;
49296;SDS011;35163;48.878;18.040;2022-11-14T03:36:29;64.30;;;24.38;;
49296;SDS011;35163;48.878;18.040;2022-11-14T03:38:56;95.43;;;24.70;;
49296;SDS011;35163;48.878;18.040;2022-11-14T03:41:23;89.05;;;25.17;;
49296;SDS011;35163;48.878;18.040;2022-11-14T03:43:49;109.68;;;24.58;;
49296;SDS011;35163;48.878;18.040;2022-11-14T03:46:16;144.40;;;27.52;;
49296;SDS011;35163;48.878;18.040;2022-11-14T03:48:42;87.25;;;24.42;;
49296;SDS011;35163;48.878;18.040;2022-11-14T03:51:09;39.42;;;20.25;;
49296;SDS011;35163;48.878;18.040;2022-11-14T03:53:35;51.85;;;23.92;;
49296;SDS011;35163;48.878;18.040;2022-11-14T03:56:02;102.82;;;22.75;;
49296;SDS011;35163;48.878;18.040;2022-11-14T03:58:29;42.30;;;21.45;;
49296;SDS011;35163;48.878;18.040;2022-11-14T04:00:56;66.15;;;21.55;;
49296;SDS011;35163;48.878;18.040;2022-11-14T04:03:23;39.63;;;22.20;;
49296;SDS011;35163;48.878;18.040;2022-11-14T04:05:50;64.53;;;20.52;;
49296;SDS011;35163;48.878;18.040;2022-11-14T04:08:16;55.65;;;21.58;;
49296;SDS011;35163;48.878;18.040;2022-11-14T04:10:45;117.57;;;23.75;;
49296;SDS011;35163;48.878;18.040;2022-11-14T04:13:13;48.47;;;19.90;;
49296;SDS011;35163;48.878;18.040;2022-11-14T04:15:40;69.70;;;22.23;;
49296;SDS011;35163;48.878;18.040;2022-11-14T04:18:07;52.85;;;21.38;;
49296;SDS011;35163;48.878;18.040;2022-11-14T04:20:33;60.65;;;22.27;;
49296;SDS011;35163;48.878;18.040;2022-11-14T04:23:00;37.20;;;19.08;;
49296;SDS011;35163;48.878;18.040;2022-11-14T04:25:26;64.15;;;21.70;;
49296;SDS011;35163;48.878;18.040;2022-11-14T04:27:53;36.28;;;18.10;;
49296;SDS011;35163;48.878;18.040;2022-11-14T04:30:20;37.08;;;18.90;;
49296;SDS011;35163;48.878;18.040;2022-11-14T04:32:46;43.10;;;20.60;;
49296;SDS011;35163;48.878;18.040;2022-11-14T04:35:14;39.47;;;19.80;;
49296;SDS011;35163;48.878;18.040;2022-11-14T04:37:41;43.58;;;21.48;;
49296;SDS011;35163;48.878;18.040;2022-11-14T04:40:08;67.05;;;18.95;;
49296;SDS011;35163;48.878;18.040;2022-11-14T04:42:34;44.88;;;19.35;;
49296;SDS011;35163;48.878;18.040;2022-11-14T04:45:01;31.77;;;17.70;;
49296;SDS011;35163;48.878;18.040;2022-11-14T04:47:28;32.85;;;18.30;;
49296;SDS011;35163;48.878;18.040;2022-11-14T04:49:54;36.08;;;19.38;;
49296;SDS011;35163;48.878;18.040;2022-11-14T04:52:21;36.08;;;18.90;;
49296;SDS011;35163;48.878;18.040;2022-11-14T04:54:48;41.60;;;18.65;;
49296;SDS011;35163;48.878;18.040;2022-11-14T04:57:14;34.60;;;17.00;;
49296;SDS011;35163;48.878;18.040;2022-11-14T04:59:43;39.03;;;19.65;;
49296;SDS011;35163;48.878;18.040;2022-11-14T05:02:09;45.90;;;18.63;;
49296;SDS011;35163;48.878;18.040;2022-11-14T05:04:36;46.20;;;19.70;;
49296;SDS011;35163;48.878;18.040;2022-11-14T05:07:03;56.97;;;20.13;;
49296;SDS011;35163;48.878;18.040;2022-11-14T05:09:29;34.67;;;18.50;;
49296;SDS011;35163;48.878;18.040;2022-11-14T05:11:56;40.13;;;16.70;;
49296;SDS011;35163;48.878;18.040;2022-11-14T05:14:22;34.17;;;17.90;;
49296;SDS011;35163;48.878;18.040;2022-11-14T05:16:49;47.45;;;19.30;;
49296;SDS011;35163;48.878;18.040;2022-11-14T05:19:16;36.97;;;19.02;;
49296;SDS011;35163;48.878;18.040;2022-11-14T05:21:42;49.22;;;19.00;;
49296;SDS011;35163;48.878;18.040;2022-11-14T05:24:09;200.48;;;25.13;;
49296;SDS011;35163;48.878;18.040;2022-11-14T05:26:35;129.48;;;21.38;;
49296;SDS011;35163;48.878;18.040;2022-11-14T05:29:02;39.22;;;20.00;;
49296;SDS011;35163;48.878;18.040;2022-11-14T05:31:29;52.65;;;19.10;;
49296;SDS011;35163;48.878;18.040;2022-11-14T05:33:56;346.23;;;32.72;;
49296;SDS011;35163;48.878;18.040;2022-11-14T05:36:22;110.43;;;20.63;;
49296;SDS011;35163;48.878;18.040;2022-11-14T05:38:49;68.22;;;20.05;;
49296;SDS011;35163;48.878;18.040;2022-11-14T05:41:16;38.85;;;18.58;;
49296;SDS011;35163;48.878;18.040;2022-11-14T05:43:47;42.10;;;20.27;;
49296;SDS011;35163;48.878;18.040;2022-11-14T05:46:14;67.43;;;20.15;;
49296;SDS011;35163;48.878;18.040;2022-11-14T05:48:42;36.85;;;18.83;;
49296;SDS011;35163;48.878;18.040;2022-11-14T05:51:10;38.45;;;19.35;;
49296;SDS011;35163;48.878;18.040;2022-11-14T05:53:37;118.32;;;22.08;;
49296;SDS011;35163;48.878;18.040;2022-11-14T05:56:09;57.80;;;18.50;;
49296;SDS011;35163;48.878;18.040;2022-11-14T05:58:37;129.05;;;20.58;;
49296;SDS011;35163;48.878;18.040;2022-11-14T06:01:05;108.38;;;20.48;;
49296;SDS011;35163;48.878;18.040;2022-11-14T06:03:37;38.67;;;17.65;;
49296;SDS011;35163;48.878;18.040;2022-11-14T06:06:05;43.40;;;18.13;;
49296;SDS011;35163;48.878;18.040;2022-11-14T06:08:33;170.73;;;23.05;;
49296;SDS011;35163;48.878;18.040;2022-11-14T06:11:00;61.72;;;20.98;;
49296;SDS011;35163;48.878;18.040;2022-11-14T06:13:29;193.25;;;24.55;;
49296;SDS011;35163;48.878;18.040;2022-11-14T06:16:00;49.85;;;21.15;;
49296;SDS011;35163;48.878;18.040;2022-11-14T06:18:27;35.22;;;17.95;;
49296;SDS011;35163;48.878;18.040;2022-11-14T06:20:59;63.55;;;20.35;;
49296;SDS011;35163;48.878;18.040;2022-11-14T06:23:26;64.60;;;19.00;;
49296;SDS011;35163;48.878;18.040;2022-11-14T06:25:57;54.85;;;18.10;;
49296;SDS011;35163;48.878;18.040;2022-11-14T06:28:27;61.40;;;19.13;;
49296;SDS011;35163;48.878;18.040;2022-11-14T06:30:56;41.90;;;17.92;;
49296;SDS011;35163;48.878;18.040;2022-11-14T06:33:27;234.50;;;26.65;;
49296;SDS011;35163;48.878;18.040;2022-11-14T06:35:58;33.65;;;18.20;;
49296;SDS011;35163;48.878;18.040;2022-11-14T06:38:26;53.10;;;18.23;;
49296;SDS011;35163;48.878;18.040;2022-11-14T06:41:00;39.63;;;17.17;;
49296;SDS011;35163;48.878;18.040;2022-11-14T06:43:27;60.92;;;18.80;;
49296;SDS011;35163;48.878;18.040;2022-11-14T06:45:54;41.85;;;17.55;;
49296;SDS011;35163;48.878;18.040;2022-11-14T06:48:21;51.33;;;18.10;;
49296;SDS011;35163;48.878;18.040;2022-11-14T06:50:53;43.33;;;17.33;;
49296;SDS011;35163;48.878;18.040;2022-11-14T06:53:21;49.40;;;18.65;;
49296;SDS011;35163;48.878;18.040;2022-11-14T06:56:01;71.93;;;20.35;;
49296;SDS011;35163;48.878;18.040;2022-11-14T06:58:34;43.40;;;18.45;;
49296;SDS011;35163;48.878;18.040;2022-11-14T07:01:07;50.30;;;21.05;;
49296;SDS011;35163;48.878;18.040;2022-11-14T07:03:37;67.90;;;18.23;;
49296;SDS011;35163;48.878;18.040;2022-11-14T07:06:03;68.85;;;17.98;;
49296;SDS011;35163;48.878;18.040;2022-11-14T07:08:31;70.28;;;18.58;;
49296;SDS011;35163;48.878;18.040;2022-11-14T07:10:59;37.80;;;17.55;;
49296;SDS011;35163;48.878;18.040;2022-11-14T07:13:27;55.08;;;18.70;;
49296;SDS011;35163;48.878;18.040;2022-11-14T07:15:54;47.25;;;18.10;;
49296;SDS011;35163;48.878;18.040;2022-11-14T07:18:21;43.17;;;16.77;;
49296;SDS011;35163;48.878;18.040;2022-11-14T07:20:47;79.90;;;17.67;;
49296;SDS011;35163;48.878;18.040;2022-11-14T07:23:14;57.05;;;17.55;;
49296;SDS011;35163;48.878;18.040;2022-11-14T07:25:47;80.28;;;18.33;;
49296;SDS011;35163;48.878;18.040;2022-11-14T07:28:14;45.60;;;18.33;;
49296;SDS011;35163;48.878;18.040;2022-11-14T07:30:41;87.22;;;18.60;;
49296;SDS011;35163;48.878;18.040;2022-11-14T07:33:07;70.15;;;18.13;;
49296;SDS011;35163;48.878;18.040;2022-11-14T07:35:34;54.28;;;20.20;;
49296;SDS011;35163;48.878;18.040;2022-11-14T07:38:01;43.63;;;17.92;;
49296;SDS011;35163;48.878;18.040;2022-11-14T07:40:29;39.45;;;16.65;;
49296;SDS011;35163;48.878;18.040;2022-11-14T07:42:56;80.40;;;19.35;;
49296;SDS011;35163;48.878;18.040;2022-11-14T07:45:27;80.10;;;18.48;;
49296;SDS011;35163;48.878;18.040;2022-11-14T07:47:54;83.80;;;18.25;;
49296;SDS011;35163;48.878;18.040;2022-11-14T07:50:26;30.73;;;16.25;;
49296;SDS011;35163;48.878;18.040;2022-11-14T07:52:54;37.15;;;18.83;;
49296;SDS011;35163;48.878;18.040;2022-11-14T07:55:22;36.30;;;15.45;;
49296;SDS011;35163;48.878;18.040;2022-11-14T07:57:53;32.28;;;15.13;;
49296;SDS011;35163;48.878;18.040;2022-11-14T08:00:20;26.67;;;14.77;;
49296;SDS011;35163;48.878;18.040;2022-11-14T08:02:47;33.90;;;15.85;;
49296;SDS011;35163;48.878;18.040;2022-11-14T08:05:13;32.63;;;16.38;;
49296;SDS011;35163;48.878;18.040;2022-11-14T08:07:40;34.00;;;15.77;;
49296;SDS011;35163;48.878;18.040;2022-11-14T08:10:07;37.67;;;17.33;;
49296;SDS011;35163;48.878;18.040;2022-11-14T08:12:36;34.28;;;14.57;;
49296;SDS011;35163;48.878;18.040;2022-11-14T08:15:08;31.35;;;15.80;;
49296;SDS011;35163;48.878;18.040;2022-11-14T08:17:37;40.00;;;17.98;;
49296;SDS011;35163;48.878;18.040;2022-11-14T08:20:04;32.80;;;14.52;;
49296;SDS011;35163;48.878;18.040;2022-11-14T08:22:32;29.80;;;14.88;;
49296;SDS011;35163;48.878;18.040;2022-11-14T08:24:59;29.65;;;15.20;;
49296;SDS011;35163;48.878;18.040;2022-11-14T08:27:25;34.22;;;15.73;;
49296;SDS011;35163;48.878;18.040;2022-11-14T08:29:52;37.95;;;17.33;;
49296;SDS011;35163;48.878;18.040;2022-11-14T08:32:19;39.67;;;19.50;;
49296;SDS011;35163;48.878;18.040;2022-11-14T08:34:46;42.58;;;19.73;;
49296;SDS011;35163;48.878;18.040;2022-11-14T08:37:12;40.83;;;19.42;;
49296;SDS011;35163;48.878;18.040;2022-11-14T08:39:39;35.55;;;17.88;;
49296;SDS011;35163;48.878;18.040;2022-11-14T08:42:06;50.63;;;20.23;;
49296;SDS011;35163;48.878;18.040;2022-11-14T08:44:32;42.95;;;19.52;;
49296;SDS011;35163;48.878;18.040;2022-11-14T08:46:59;35.72;;;18.67;;
49296;SDS011;35163;48.878;18.040;2022-11-14T08:49:27;40.80;;;17.88;;
49296;SDS011;35163;48.878;18.040;2022-11-14T08:51:53;40.75;;;16.85;;
49296;SDS011;35163;48.878;18.040;2022-11-14T08:54:20;34.88;;;17.02;;
49296;SDS011;35163;48.878;18.040;2022-11-14T08:56:47;40.40;;;16.83;;
49296;SDS011;35163;48.878;18.040;2022-11-14T08:59:13;41.05;;;17.38;;
49296;SDS011;35163;48.878;18.040;2022-11-14T09:01:40;33.15;;;17.60;;
49296;SDS011;35163;48.878;18.040;2022-11-14T09:04:07;31.20;;;16.45;;
49296;SDS011;35163;48.878;18.040;2022-11-14T09:06:34;34.67;;;16.65;;
49296;SDS011;35163;48.878;18.040;2022-11-14T09:09:00;47.70;;;20.80;;
49296;SDS011;35163;48.878;18.040;2022-11-14T09:11:27;43.15;;;19.45;;
49296;SDS011;35163;48.878;18.040;2022-11-14T09:13:54;32.85;;;17.55;;
49296;SDS011;35163;48.878;18.040;2022-11-14T09:16:20;36.25;;;16.65;;
49296;SDS011;35163;48.878;18.040;2022-11-14T09:18:47;32.03;;;16.63;;
49296;SDS011;35163;48.878;18.040;2022-11-14T09:21:13;31.05;;;15.63;;
49296;SDS011;35163;48.878;18.040;2022-11-14T09:23:40;30.75;;;15.70;;
49296;SDS011;35163;48.878;18.040;2022-11-14T09:26:07;37.28;;;17.45;;
49296;SDS011;35163;48.878;18.040;2022-11-14T09:28:35;39.00;;;16.33;;
49296;SDS011;35163;48.878;18.040;2022-11-14T09:31:03;69.95;;;17.10;;
49296;SDS011;35163;48.878;18.040;2022-11-14T09:33:34;58.20;;;15.90;;
49296;SDS011;35163;48.878;18.040;2022-11-14T09:36:02;78.50;;;17.77;;
49296;SDS011;35163;48.878;18.040;2022-11-14T09:38:31;72.00;;;20.30;;
49296;SDS011;35163;48.878;18.040;2022-11-14T09:46:15;35.85;;;17.85;;
49296;SDS011;35163;48.878;18.040;2022-11-14T09:48:47;77.18;;;18.33;;
49296;SDS011;35163;48.878;18.040;2022-11-14T09:51:22;38.53;;;19.05;;
49296;SDS011;35163;48.878;18.040;2022-11-14T09:53:56;27.40;;;14.55;;
49296;SDS011;35163;48.878;18.040;2022-11-14T09:56:32;43.95;;;17.90;;
49296;SDS011;35163;48.878;18.040;2022-11-14T09:58:59;32.10;;;16.20;;
49296;SDS011;35163;48.878;18.040;2022-11-14T10:04:03;31.67;;;16.70;;
49296;SDS011;35163;48.878;18.040;2022-11-14T10:06:58;53.88;;;16.15;;
49296;SDS011;35163;48.878;18.040;2022-11-14T10:12:22;27.05;;;14.10;;
49296;SDS011;35163;48.878;18.040;2022-11-14T10:15:00;28.00;;;15.55;;
49296;SDS011;35163;48.878;18.040;2022-11-14T10:20:22;29.80;;;16.95;;
49296;SDS011;35163;48.878;18.040;2022-11-14T10:33:51;25.98;;;14.57;;
49296;SDS011;35163;48.878;18.040;2022-11-14T10:41:49;34.08;;;14.70;;
49296;SDS011;35163;48.878;18.040;2022-11-14T10:44:37;28.77;;;16.65;;
49296;SDS011;35163;48.878;18.040;2022-11-14T10:47:26;30.75;;;17.13;;
49296;SDS011;35163;48.878;18.040;2022-11-14T10:50:04;33.35;;;16.85;;
49296;SDS011;35163;48.878;18.040;2022-11-14T10:52:44;31.50;;;16.40;;
49296;SDS011;35163;48.878;18.040;2022-11-14T10:55:14;27.05;;;14.43;;
49296;SDS011;35163;48.878;18.040;2022-11-14T10:57:44;30.70;;;17.02;;
49296;SDS011;35163;48.878;18.040;2022-11-14T11:00:11;29.02;;;15.48;;
49296;SDS011;35163;48.878;18.040;2022-11-14T11:02:47;32.28;;;17.45;;
49296;SDS011;35163;48.878;18.040;2022-11-14T11:05:20;32.25;;;17.85;;
49296;SDS011;35163;48.878;18.040;2022-11-14T11:07:49;43.67;;;22.02;;
49296;SDS011;35163;48.878;18.040;2022-11-14T11:10:57;39.28;;;22.15;;
49296;SDS011;35163;48.878;18.040;2022-11-14T11:13:50;26.88;;;15.30;;
49296;SDS011;35163;48.878;18.040;2022-11-14T11:16:21;27.33;;;16.10;;
49296;SDS011;35163;48.878;18.040;2022-11-14T11:18:50;26.92;;;16.42;;
49296;SDS011;35163;48.878;18.040;2022-11-14T11:21:18;31.98;;;17.90;;
49296;SDS011;35163;48.878;18.040;2022-11-14T11:23:56;25.10;;;13.20;;
49296;SDS011;35163;48.878;18.040;2022-11-14T11:26:24;29.10;;;16.85;;
49296;SDS011;35163;48.878;18.040;2022-11-14T11:36:52;28.25;;;16.45;;
49296;SDS011;35163;48.878;18.040;2022-11-14T11:39:32;27.10;;;14.65;;
49296;SDS011;35163;48.878;18.040;2022-11-14T11:42:07;34.08;;;15.95;;
49296;SDS011;35163;48.878;18.040;2022-11-14T11:44:41;31.88;;;17.10;;
49296;SDS011;35163;48.878;18.040;2022-11-14T11:47:15;35.03;;;17.27;;
49296;SDS011;35163;48.878;18.040;2022-11-14T11:49:47;31.60;;;16.00;;
49296;SDS011;35163;48.878;18.040;2022-11-14T11:57:23;31.08;;;18.75;;
49296;SDS011;35163;48.878;18.040;2022-11-14T12:00:05;25.25;;;14.50;;
49296;SDS011;35163;48.878;18.040;2022-11-14T12:02:44;29.33;;;17.08;;
49296;SDS011;35163;48.878;18.040;2022-11-14T12:05:16;27.40;;;15.38;;
49296;SDS011;35163;48.878;18.040;2022-11-14T12:10:26;31.60;;;16.83;;
49296;SDS011;35163;48.878;18.040;2022-11-14T12:24:43;25.15;;;15.02;;
49296;SDS011;35163;48.878;18.040;2022-11-14T12:27:33;25.92;;;15.68;;
49296;SDS011;35163;48.878;18.040;2022-11-14T12:30:18;27.05;;;15.55;;
49296;SDS011;35163;48.878;18.040;2022-11-14T12:32:50;26.50;;;14.83;;
49296;SDS011;35163;48.878;18.040;2022-11-14T12:35:34;33.85;;;17.20;;
49296;SDS011;35163;48.878;18.040;2022-11-14T12:38:02;30.10;;;17.42;;
49296;SDS011;35163;48.878;18.040;2022-11-14T12:40:38;24.13;;;13.82;;
49296;SDS011;35163;48.878;18.040;2022-11-14T12:46:03;26.08;;;14.25;;
49296;SDS011;35163;48.878;18.040;2022-11-14T12:48:43;30.13;;;14.32;;
49296;SDS011;35163;48.878;18.040;2022-11-14T12:53:50;26.17;;;13.20;;
49296;SDS011;35163;48.878;18.040;2022-11-14T13:02:05;26.63;;;14.35;;
49296;SDS011;35163;48.878;18.040;2022-11-14T13:10:38;42.53;;;22.52;;
49296;SDS011;35163;48.878;18.040;2022-11-14T13:13:07;41.83;;;23.67;;
49296;SDS011;35163;48.878;18.040;2022-11-14T13:15:57;37.05;;;21.23;;
49296;SDS011;35163;48.878;18.040;2022-11-14T13:27:24;26.80;;;14.18;;
49296;SDS011;35163;48.878;18.040;2022-11-14T13:30:17;29.00;;;14.60;;
49296;SDS011;35163;48.878;18.040;2022-11-14T13:35:17;40.92;;;19.40;;
49296;SDS011;35163;48.878;18.040;2022-11-14T13:51:19;40.67;;;15.15;;
49296;SDS011;35163;48.878;18.040;2022-11-14T13:54:10;24.88;;;14.82;;
49296;SDS011;35163;48.878;18.040;2022-11-14T14:05:34;28.63;;;16.15;;
49296;SDS011;35163;48.878;18.040;2022-11-14T14:16:56;28.92;;;15.70;;
49296;SDS011;35163;48.878;18.040;2022-11-14T14:19:33;35.35;;;16.95;;
49296;SDS011;35163;48.878;18.040;2022-11-14T14:22:14;27.95;;;16.08;;
49296;SDS011;35163;48.878;18.040;2022-11-14T14:24:48;28.70;;;15.43;;
49296;SDS011;35163;48.878;18.040;2022-11-14T14:30:16;30.80;;;16.98;;
49296;SDS011;35163;48.878;18.040;2022-11-14T14:33:01;36.85;;;16.95;;
49296;SDS011;35163;48.878;18.040;2022-11-14T14:35:29;26.08;;;15.35;;
49296;SDS011;35163;48.878;18.040;2022-11-14T14:38:09;40.90;;;17.20;;
49296;SDS011;35163;48.878;18.040;2022-11-14T14:40:38;32.05;;;17.30;;
49296;SDS011;35163;48.878;18.040;2022-11-14T14:43:06;32.03;;;17.02;;
49296;SDS011;35163;48.878;18.040;2022-11-14T14:45:46;31.15;;;17.92;;
49296;SDS011;35163;48.878;18.040;2022-11-14T14:48:17;31.63;;;19.70;;
49296;SDS011;35163;48.878;18.040;2022-11-14T14:50:50;32.63;;;16.85;;
49296;SDS011;35163;48.878;18.040;2022-11-14T14:53:39;35.17;;;19.60;;
49296;SDS011;35163;48.878;18.040;2022-11-14T14:56:17;33.95;;;18.70;;
49296;SDS011;35163;48.878;18.040;2022-11-14T14:58:45;35.38;;;20.15;;
49296;SDS011;35163;48.878;18.040;2022-11-14T15:01:22;30.05;;;17.52;;
49296;SDS011;35163;48.878;18.040;2022-11-14T15:04:00;36.00;;;19.13;;
49296;SDS011;35163;48.878;18.040;2022-11-14T15:06:33;31.52;;;18.70;;
49296;SDS011;35163;48.878;18.040;2022-11-14T15:09:07;41.28;;;20.65;;
49296;SDS011;35163;48.878;18.040;2022-11-14T15:11:37;33.45;;;18.75;;
49296;SDS011;35163;48.878;18.040;2022-11-14T15:14:08;42.92;;;20.40;;
49296;SDS011;35163;48.878;18.040;2022-11-14T15:16:49;33.72;;;19.73;;
49296;SDS011;35163;48.878;18.040;2022-11-14T15:19:21;38.97;;;21.38;;
49296;SDS011;35163;48.878;18.040;2022-11-14T15:22:03;34.53;;;20.17;;
49296;SDS011;35163;48.878;18.040;2022-11-14T15:24:35;38.20;;;22.33;;
49296;SDS011;35163;48.878;18.040;2022-11-14T15:27:03;30.27;;;18.08;;
49296;SDS011;35163;48.878;18.040;2022-11-14T15:29:31;31.48;;;19.50;;
49296;SDS011;35163;48.878;18.040;2022-11-14T15:32:01;34.53;;;17.65;;
49296;SDS011;35163;48.878;18.040;2022-11-14T15:34:30;40.78;;;23.13;;
49296;SDS011;35163;48.878;18.040;2022-11-14T15:39:44;35.08;;;20.25;;
49296;SDS011;35163;48.878;18.040;2022-11-14T15:42:12;36.72;;;21.20;;
49296;SDS011;35163;48.878;18.040;2022-11-14T15:44:52;34.65;;;18.15;;
49296;SDS011;35163;48.878;18.040;2022-11-14T15:52:27;33.97;;;19.42;;
49296;SDS011;35163;48.878;18.040;2022-11-14T15:54:59;43.78;;;19.88;;
49296;SDS011;35163;48.878;18.040;2022-11-14T15:57:26;35.47;;;19.75;;
49296;SDS011;35163;48.878;18.040;2022-11-14T15:59:53;40.05;;;21.55;;
49296;SDS011;35163;48.878;18.040;2022-11-14T16:02:24;45.47;;;20.92;;
49296;SDS011;35163;48.878;18.040;2022-11-14T16:04:54;39.13;;;21.63;;
49296;SDS011;35163;48.878;18.040;2022-11-14T16:07:23;42.08;;;22.10;;
49296;SDS011;35163;48.878;18.040;2022-11-14T16:09:50;35.63;;;20.23;;
49296;SDS011;35163;48.878;18.040;2022-11-14T16:12:16;42.78;;;20.80;;
49296;SDS011;35163;48.878;18.040;2022-11-14T16:14:43;36.08;;;21.92;;
49296;SDS011;35163;48.878;18.040;2022-11-14T16:17:13;42.20;;;21.40;;
49296;SDS011;35163;48.878;18.040;2022-11-14T16:19:42;39.55;;;21.67;;
49296;SDS011;35163;48.878;18.040;2022-11-14T16:22:11;38.28;;;20.65;;
49296;SDS011;35163;48.878;18.040;2022-11-14T16:24:40;35.58;;;19.20;;
49296;SDS011;35163;48.878;18.040;2022-11-14T16:27:07;42.53;;;23.17;;
49296;SDS011;35163;48.878;18.040;2022-11-14T16:29:34;43.22;;;22.08;;
49296;SDS011;35163;48.878;18.040;2022-11-14T16:32:01;39.15;;;21.80;;
49296;SDS011;35163;48.878;18.040;2022-11-14T16:34:28;61.28;;;33.90;;